createdAt,value
2023-05-23T00:02:23.553Z,14.03
2023-05-23T00:04:51.453Z,12.73
2023-05-23T00:07:18.153Z,12.53
2023-05-23T00:09:44.791Z,13.67
2023-05-23T00:12:12.306Z,14.80
2023-05-23T00:14:40.168Z,14.63
2023-05-23T00:17:10.549Z,19.53
2023-05-23T00:19:37.469Z,17.83
2023-05-23T00:22:04.341Z,19.53
2023-05-23T00:24:30.994Z,18.90
2023-05-23T00:26:58.893Z,19.63
2023-05-23T00:29:25.741Z,19.20
2023-05-23T00:31:52.413Z,19.70
2023-05-23T00:34:19.603Z,19.00
2023-05-23T00:36:50.200Z,17.90
2023-05-23T00:39:20.943Z,17.80
2023-05-23T00:41:51.823Z,16.97
2023-05-23T00:44:20.180Z,16.60
2023-05-23T00:46:52.138Z,17.80
2023-05-23T00:49:20.187Z,19.57
2023-05-23T00:51:49.357Z,19.30
2023-05-23T00:54:20.901Z,18.87
2023-05-23T00:56:48.629Z,17.83
2023-05-23T00:59:16.093Z,16.27
2023-05-23T01:01:46.474Z,18.50
2023-05-23T01:04:13.966Z,18.20
2023-05-23T01:06:40.644Z,18.40
2023-05-23T01:09:09.509Z,20.10
2023-05-23T01:11:47.095Z,19.00
2023-05-23T01:14:22.013Z,17.20
2023-05-23T01:17:02.867Z,18.17
2023-05-23T01:19:48.917Z,18.33
2023-05-23T01:22:24.184Z,20.10
2023-05-23T01:25:28.266Z,21.90
2023-05-23T01:27:57.384Z,21.70
2023-05-23T01:30:26.507Z,21.37
2023-05-23T01:32:56.436Z,20.73
2023-05-23T01:35:27.147Z,18.57
2023-05-23T01:37:55.375Z,19.03
2023-05-23T01:40:23.482Z,17.67
2023-05-23T01:42:50.920Z,17.90
2023-05-23T01:45:18.298Z,17.67
2023-05-23T01:47:47.165Z,19.10
2023-05-23T01:50:14.654Z,19.13
2023-05-23T01:52:42.524Z,19.50
2023-05-23T01:55:10.059Z,21.20
2023-05-23T01:57:38.386Z,19.80
2023-05-23T02:00:06.801Z,16.57
2023-05-23T02:02:40.624Z,15.50
2023-05-23T02:05:07.766Z,17.87
2023-05-23T02:07:34.424Z,18.10
2023-05-23T02:10:01.167Z,19.00
2023-05-23T02:12:28.570Z,19.70
2023-05-23T02:14:55.631Z,18.77
2023-05-23T02:17:22.435Z,17.90
2023-05-23T02:19:49.795Z,18.30
2023-05-23T02:22:16.531Z,19.70
2023-05-23T02:24:43.264Z,21.33
2023-05-23T02:27:09.910Z,23.37
2023-05-23T02:29:36.631Z,25.27
2023-05-23T02:32:03.276Z,24.47
2023-05-23T02:34:29.948Z,23.83
2023-05-23T02:36:56.725Z,24.83
2023-05-23T02:39:23.417Z,25.00
2023-05-23T02:41:50.743Z,22.33
2023-05-23T02:44:19.583Z,21.40
2023-05-23T02:46:46.563Z,20.73
2023-05-23T02:49:13.420Z,19.90
2023-05-23T02:51:40.215Z,17.17
2023-05-23T02:54:06.994Z,16.03
2023-05-23T02:56:36.537Z,16.20
2023-05-23T02:59:03.688Z,15.13
2023-05-23T03:01:30.512Z,13.13
2023-05-23T03:03:57.320Z,13.90
2023-05-23T03:06:24.120Z,12.60
2023-05-23T03:08:50.989Z,11.17
2023-05-23T03:11:17.850Z,11.27
2023-05-23T03:13:44.760Z,11.13
2023-05-23T03:16:13.144Z,10.23
2023-05-23T03:18:42.152Z,13.07
2023-05-23T03:21:09.729Z,12.80
2023-05-23T03:23:36.893Z,13.27
2023-05-23T03:26:04.198Z,12.87
2023-05-23T03:28:34.169Z,13.40
2023-05-23T03:31:01.256Z,14.03
2023-05-23T03:33:28.331Z,15.57
2023-05-23T03:35:55.274Z,15.70
2023-05-23T03:38:22.396Z,17.40
2023-05-23T03:40:49.226Z,18.90
2023-05-23T03:43:16.063Z,19.53
2023-05-23T03:45:44.213Z,17.70
2023-05-23T03:48:14.014Z,18.43
2023-05-23T03:50:42.166Z,18.67
2023-05-23T03:53:10.309Z,18.00
2023-05-23T03:55:39.836Z,15.57
2023-05-23T03:58:07.276Z,16.10
2023-05-23T04:00:34.258Z,14.97
2023-05-23T04:03:04.892Z,15.87
2023-05-23T04:05:32.001Z,14.20
2023-05-23T04:08:01.758Z,15.50
2023-05-23T04:10:29.251Z,14.50
2023-05-23T04:12:56.931Z,15.90
2023-05-23T04:15:24.909Z,16.83
2023-05-23T04:17:58.138Z,16.80
2023-05-23T04:20:26.620Z,16.60
2023-05-23T04:22:53.510Z,17.30
2023-05-23T04:25:20.641Z,16.70
2023-05-23T04:27:59.695Z,17.37
2023-05-23T04:30:26.709Z,19.50
2023-05-23T04:32:53.683Z,20.00
2023-05-23T04:35:21.239Z,20.80
2023-05-23T04:37:47.911Z,20.10
2023-05-23T04:40:14.663Z,20.87
2023-05-23T04:42:57.872Z,20.80
2023-05-23T04:45:33.839Z,21.90
2023-05-23T04:48:04.560Z,20.63
2023-05-23T04:50:37.814Z,21.73
2023-05-23T04:53:04.588Z,21.93
2023-05-23T04:55:32.047Z,22.77
2023-05-23T04:58:00.049Z,20.47
2023-05-23T05:00:26.944Z,19.93
2023-05-23T05:02:53.800Z,18.80
2023-05-23T05:05:22.373Z,19.17
2023-05-23T05:07:49.031Z,17.23
2023-05-23T05:10:16.846Z,18.83
2023-05-23T05:12:49.458Z,20.87
2023-05-23T05:15:17.636Z,20.63
2023-05-23T05:17:49.723Z,20.13
2023-05-23T05:20:18.564Z,23.27
2023-05-23T05:22:46.252Z,24.60
2023-05-23T05:25:13.310Z,24.77
2023-05-23T05:27:40.344Z,23.83
2023-05-23T05:30:10.109Z,24.83
2023-05-23T05:32:58.056Z,25.30
2023-05-23T05:35:24.885Z,28.00
2023-05-23T05:37:51.551Z,28.50
2023-05-23T05:40:18.876Z,29.47
2023-05-23T05:42:45.555Z,28.10
2023-05-23T05:45:12.293Z,28.97
2023-05-23T05:47:40.729Z,27.10
2023-05-23T05:50:09.428Z,27.50
2023-05-23T05:52:39.494Z,23.80
2023-05-23T05:55:11.430Z,25.67
2023-05-23T05:57:40.368Z,24.80
2023-05-23T06:00:13.556Z,23.30
2023-05-23T06:02:48.771Z,23.43
2023-05-23T06:05:20.521Z,23.20
2023-05-23T06:07:50.011Z,22.60
2023-05-23T06:10:16.870Z,20.37
2023-05-23T06:12:45.501Z,22.87
2023-05-23T06:15:14.411Z,24.30
2023-05-23T06:17:41.500Z,22.67
2023-05-23T06:20:08.703Z,22.60
2023-05-23T06:22:37.938Z,23.70
2023-05-23T06:25:05.579Z,20.17
2023-05-23T06:27:32.339Z,16.70
2023-05-23T06:29:59.015Z,14.70
2023-05-23T06:32:25.740Z,14.03
2023-05-23T06:34:52.457Z,15.63
2023-05-23T06:37:19.134Z,15.23
2023-05-23T06:39:45.789Z,15.10
2023-05-23T06:42:12.477Z,16.90
2023-05-23T06:44:53.437Z,16.83
2023-05-23T06:47:20.283Z,18.27
2023-05-23T06:49:47.031Z,19.57
2023-05-23T06:52:13.968Z,20.20
2023-05-23T06:54:41.872Z,19.37
2023-05-23T06:57:08.538Z,18.93
2023-05-23T06:59:35.457Z,22.07
2023-05-23T07:02:02.839Z,22.00
2023-05-23T07:04:29.619Z,28.03
2023-05-23T07:07:00.513Z,28.20
2023-05-23T07:09:27.753Z,21.63
2023-05-23T07:12:05.065Z,17.80
2023-05-23T07:14:31.784Z,17.77
2023-05-23T07:16:58.689Z,20.00
2023-05-23T07:19:25.464Z,18.60
2023-05-23T07:21:52.854Z,19.23
2023-05-23T07:24:19.645Z,17.10
2023-05-23T07:26:47.264Z,16.40
2023-05-23T07:29:14.382Z,15.30
2023-05-23T07:31:41.232Z,15.90
2023-05-23T07:34:09.077Z,15.83
2023-05-23T07:36:50.132Z,17.50
2023-05-23T07:39:21.908Z,19.80
2023-05-23T07:41:50.160Z,22.20
2023-05-23T07:44:19.811Z,23.43
2023-05-23T07:46:47.551Z,19.80
2023-05-23T07:49:14.880Z,20.30
2023-05-23T07:51:41.782Z,18.10
2023-05-23T07:54:10.169Z,18.80
2023-05-23T07:56:39.959Z,14.50
2023-05-23T07:59:08.647Z,11.67
2023-05-23T08:01:35.516Z,9.00
2023-05-23T08:04:07.075Z,10.40
2023-05-23T08:06:45.698Z,10.10
2023-05-23T08:09:26.308Z,9.23
2023-05-23T08:11:56.171Z,9.63
2023-05-23T08:14:27.413Z,8.00
2023-05-23T08:17:13.283Z,8.70
2023-05-23T08:19:41.991Z,8.10
2023-05-23T08:22:08.831Z,8.03
2023-05-23T08:24:35.507Z,8.97
2023-05-23T08:27:02.250Z,9.70
2023-05-23T08:29:31.170Z,10.30
2023-05-23T08:31:57.945Z,11.00
2023-05-23T08:34:24.749Z,9.40
2023-05-23T08:36:52.499Z,9.70
2023-05-23T08:39:21.124Z,10.97
2023-05-23T08:41:55.064Z,10.07
2023-05-23T08:44:21.869Z,11.00
2023-05-23T08:46:54.075Z,10.03
2023-05-23T08:49:47.059Z,9.10
2023-05-23T08:52:18.103Z,10.27
2023-05-23T08:54:47.818Z,10.00
2023-05-23T08:57:14.882Z,10.27
2023-05-23T08:59:47.374Z,9.73
2023-05-23T09:02:16.342Z,10.27
2023-05-23T09:04:43.181Z,10.73
2023-05-23T09:07:18.637Z,10.20
2023-05-23T09:09:45.816Z,9.53
2023-05-23T09:12:15.312Z,9.37
2023-05-23T09:14:45.943Z,9.13
2023-05-23T09:17:18.059Z,8.43
2023-05-23T09:19:48.864Z,10.10
2023-05-23T09:22:26.898Z,10.77
2023-05-23T09:25:09.077Z,9.83
2023-05-23T09:27:38.206Z,10.47
2023-05-23T09:30:10.209Z,10.27
2023-05-23T09:32:36.986Z,9.80
2023-05-23T09:35:06.550Z,9.93
2023-05-23T09:37:45.891Z,10.27
2023-05-23T09:40:14.672Z,8.80
2023-05-23T09:43:04.034Z,9.30
2023-05-23T09:45:31.837Z,8.33
2023-05-23T09:48:01.556Z,8.90
2023-05-23T09:50:33.632Z,9.23
2023-05-23T09:53:01.670Z,8.03
2023-05-23T09:55:28.428Z,7.80
2023-05-23T09:57:58.507Z,13.87
2023-05-23T10:00:25.833Z,9.83
2023-05-23T10:03:14.844Z,8.17
2023-05-23T10:05:48.459Z,8.20
2023-05-23T10:08:29.800Z,9.60
2023-05-23T10:10:56.484Z,10.67
2023-05-23T10:13:26.976Z,10.77
2023-05-23T10:16:14.963Z,10.23
2023-05-23T10:18:45.550Z,14.00
2023-05-23T10:21:18.737Z,13.53
2023-05-23T10:23:47.449Z,12.43
2023-05-23T10:26:14.198Z,13.27
2023-05-23T10:28:42.238Z,12.70
2023-05-23T10:31:10.479Z,13.50
2023-05-23T10:33:43.030Z,11.70
2023-05-23T10:36:23.634Z,11.00
2023-05-23T10:39:04.391Z,11.23
2023-05-23T10:41:45.383Z,14.53
2023-05-23T10:44:29.704Z,17.63
2023-05-23T10:47:01.303Z,16.73
2023-05-23T10:49:40.110Z,14.30
2023-05-23T10:52:07.714Z,13.60
2023-05-23T10:54:36.092Z,14.27
2023-05-23T10:57:04.608Z,12.47
2023-05-23T10:59:31.918Z,10.30
2023-05-23T11:02:01.342Z,8.83
2023-05-23T11:04:29.147Z,8.30
2023-05-23T11:06:56.979Z,8.00
2023-05-23T11:09:23.843Z,7.37
2023-05-23T11:12:05.620Z,7.50
2023-05-23T11:14:32.682Z,7.77
2023-05-23T11:17:20.463Z,10.40
2023-05-23T11:20:06.603Z,9.87
2023-05-23T11:22:34.572Z,8.80
2023-05-23T11:25:06.210Z,9.10
2023-05-23T11:27:37.968Z,9.20
2023-05-23T11:30:09.513Z,8.70
2023-05-23T11:32:37.282Z,15.30
2023-05-23T11:35:09.453Z,26.60
2023-05-23T11:37:38.055Z,22.20
2023-05-23T11:40:27.938Z,25.60
2023-05-23T11:42:55.504Z,55.77
2023-05-23T11:45:22.915Z,31.53
2023-05-23T11:47:49.814Z,30.63
2023-05-23T11:50:17.004Z,26.33
2023-05-23T11:52:44.522Z,20.20
2023-05-23T11:55:11.396Z,18.90
2023-05-23T11:57:39.203Z,12.83
2023-05-23T12:00:10.041Z,10.77
2023-05-23T12:02:40.772Z,12.10
2023-05-23T12:05:13.728Z,11.00
2023-05-23T12:07:48.116Z,11.80
2023-05-23T12:10:21.727Z,11.90
2023-05-23T12:12:48.842Z,10.53
2023-05-23T12:15:15.923Z,10.83
2023-05-23T12:17:46.568Z,10.37
2023-05-23T12:20:14.100Z,9.53
2023-05-23T12:22:42.037Z,9.17
2023-05-23T12:25:10.677Z,8.30
2023-05-23T12:27:40.037Z,9.03
2023-05-23T12:30:11.550Z,7.73
2023-05-23T12:32:42.847Z,6.80
2023-05-23T12:35:13.118Z,8.17
2023-05-23T12:37:41.342Z,7.90
2023-05-23T12:40:18.268Z,8.60
2023-05-23T12:42:56.457Z,7.10
2023-05-23T12:45:25.036Z,7.60
2023-05-23T12:47:54.150Z,7.80
2023-05-23T12:50:21.427Z,7.73
2023-05-23T12:52:48.558Z,6.83
2023-05-23T12:55:15.334Z,6.57
2023-05-23T12:57:42.038Z,7.23
2023-05-23T13:00:09.720Z,7.87
2023-05-23T13:02:36.572Z,6.60
2023-05-23T13:05:03.569Z,5.90
2023-05-23T13:07:30.264Z,6.60
2023-05-23T13:09:57.305Z,7.63
2023-05-23T13:12:24.468Z,6.90
2023-05-23T13:14:51.411Z,7.13
2023-05-23T13:17:18.379Z,5.90
2023-05-23T13:19:45.176Z,6.37
2023-05-23T13:22:12.064Z,5.90
2023-05-23T13:24:39.403Z,6.70
2023-05-23T13:27:07.244Z,5.17
2023-05-23T13:29:34.347Z,5.00
2023-05-23T13:32:01.326Z,5.70
2023-05-23T13:34:28.685Z,5.40
2023-05-23T13:36:55.589Z,7.40
2023-05-23T13:39:22.788Z,5.63
2023-05-23T13:41:50.540Z,4.63
2023-05-23T13:44:17.350Z,4.77
2023-05-23T13:46:44.320Z,5.30
2023-05-23T13:49:11.094Z,4.97
2023-05-23T13:51:37.791Z,7.07
2023-05-23T13:54:05.987Z,5.00
2023-05-23T13:56:33.508Z,5.10
2023-05-23T13:59:00.876Z,5.10
2023-05-23T14:01:27.708Z,4.70
2023-05-23T14:03:54.470Z,5.63
2023-05-23T14:06:21.246Z,4.90
2023-05-23T14:08:48.296Z,5.27
2023-05-23T14:11:14.978Z,5.77
2023-05-23T14:13:41.637Z,5.20
2023-05-23T14:16:08.366Z,4.60
2023-05-23T14:18:35.086Z,4.90
2023-05-23T14:21:01.801Z,4.70
2023-05-23T14:23:28.538Z,5.00
2023-05-23T14:25:55.422Z,4.30
2023-05-23T14:28:22.076Z,5.03
2023-05-23T14:30:48.740Z,4.87
2023-05-23T14:33:15.815Z,5.07
2023-05-23T14:35:43.310Z,4.43
2023-05-23T14:38:10.379Z,4.90
2023-05-23T14:40:37.032Z,5.03
2023-05-23T14:43:03.758Z,5.40
2023-05-23T14:45:30.557Z,5.07
2023-05-23T14:47:57.285Z,5.20
2023-05-23T14:50:25.701Z,5.23
2023-05-23T14:52:52.648Z,5.03
2023-05-23T14:55:19.400Z,5.30
2023-05-23T14:57:46.114Z,6.20
2023-05-23T15:00:13.389Z,5.10
2023-05-23T15:02:40.120Z,5.43
2023-05-23T15:05:07.706Z,5.10
2023-05-23T15:07:35.224Z,5.00
2023-05-23T15:10:02.745Z,4.87
2023-05-23T15:12:29.476Z,4.67
2023-05-23T15:15:03.059Z,4.57
2023-05-23T15:17:35.882Z,5.47
2023-05-23T15:20:04.631Z,4.40
2023-05-23T15:25:03.197Z,4.93
2023-05-23T15:27:29.839Z,4.33
2023-05-23T15:29:56.578Z,4.87
2023-05-23T15:32:23.419Z,4.60
2023-05-23T15:34:50.354Z,4.63
2023-05-23T15:37:17.784Z,5.47
2023-05-23T15:39:44.556Z,5.20
2023-05-23T15:42:11.268Z,4.80
2023-05-23T15:44:38.078Z,5.90
2023-05-23T15:47:05.135Z,4.17
2023-05-23T15:49:31.812Z,3.83
2023-05-23T15:51:58.560Z,4.57
2023-05-23T15:54:25.243Z,4.37
2023-05-23T15:56:51.982Z,4.33
2023-05-23T15:59:18.680Z,3.73
2023-05-23T16:01:45.565Z,3.97
2023-05-23T16:04:12.987Z,4.80
2023-05-23T16:06:39.780Z,4.30
2023-05-23T16:09:06.490Z,4.30
2023-05-23T16:11:33.176Z,4.83
2023-05-23T16:13:59.822Z,3.50
2023-05-23T16:16:26.575Z,3.93
2023-05-23T16:18:53.385Z,5.00
2023-05-23T16:21:20.943Z,4.33
2023-05-23T16:23:50.802Z,4.10
2023-05-23T16:26:18.721Z,4.60
2023-05-23T16:28:45.587Z,4.13
2023-05-23T16:31:16.568Z,4.10
2023-05-23T16:33:44.320Z,3.97
2023-05-23T16:36:11.157Z,3.90
2023-05-23T16:38:37.835Z,4.40
2023-05-23T16:41:04.581Z,3.87
2023-05-23T16:43:31.327Z,5.40
2023-05-23T16:45:58.142Z,4.07
2023-05-23T16:48:24.913Z,3.60
2023-05-23T16:50:53.861Z,3.97
2023-05-23T16:53:21.192Z,4.20
2023-05-23T16:55:47.946Z,4.50
2023-05-23T16:58:14.786Z,4.03
2023-05-23T17:00:41.453Z,3.80
2023-05-23T17:03:08.436Z,3.67
2023-05-23T17:05:35.312Z,4.37
2023-05-23T17:08:02.328Z,4.53
2023-05-23T17:10:29.068Z,4.23
2023-05-23T17:12:55.781Z,3.90
2023-05-23T17:15:22.758Z,3.60
2023-05-23T17:17:49.477Z,4.00
2023-05-23T17:20:16.211Z,3.50
2023-05-23T17:22:42.900Z,3.23
2023-05-23T17:25:09.820Z,3.90
2023-05-23T17:27:36.554Z,3.50
2023-05-23T17:30:05.066Z,3.20
2023-05-23T17:32:31.925Z,3.30
2023-05-23T17:34:58.760Z,3.70
2023-05-23T17:37:26.329Z,4.23
2023-05-23T17:39:54.590Z,3.50
2023-05-23T17:42:22.761Z,3.87
2023-05-23T17:44:49.465Z,4.00
2023-05-23T17:47:18.080Z,3.23
2023-05-23T17:49:44.833Z,3.20
2023-05-23T17:52:14.686Z,3.80
2023-05-23T17:54:42.167Z,3.67
2023-05-23T17:57:08.878Z,3.13
2023-05-23T17:59:36.288Z,3.83
2023-05-23T18:02:04.663Z,3.60
2023-05-23T18:04:31.460Z,2.97
2023-05-23T18:06:58.248Z,3.37
2023-05-23T18:09:25.064Z,3.30
2023-05-23T18:11:51.773Z,2.90
2023-05-23T18:14:18.433Z,3.27
2023-05-23T18:16:45.322Z,3.70
2023-05-23T18:19:12.191Z,3.27
2023-05-23T18:21:39.113Z,3.57
2023-05-23T18:24:05.950Z,4.10
2023-05-23T18:26:32.684Z,3.40
2023-05-23T18:29:00.885Z,3.50
2023-05-23T18:31:27.602Z,3.20
2023-05-23T18:33:54.350Z,3.80
2023-05-23T18:36:21.129Z,3.40
2023-05-23T18:38:47.920Z,3.40
2023-05-23T18:41:15.223Z,4.13
2023-05-23T18:43:41.979Z,3.10
2023-05-23T18:46:08.998Z,3.43
2023-05-23T18:48:36.182Z,3.87
2023-05-23T18:51:03.065Z,5.20
2023-05-23T18:53:29.852Z,3.37
2023-05-23T18:55:56.530Z,2.90
2023-05-23T18:58:23.199Z,3.80
2023-05-23T19:00:49.956Z,3.10
2023-05-23T19:03:17.058Z,3.43
2023-05-23T19:05:43.961Z,3.20
2023-05-23T19:08:10.661Z,3.23
2023-05-23T19:10:37.358Z,3.80
2023-05-23T19:13:04.184Z,2.87
2023-05-23T19:15:31.021Z,3.20
2023-05-23T19:17:57.799Z,3.17
2023-05-23T19:20:24.481Z,3.30
2023-05-23T19:22:52.482Z,3.83
2023-05-23T19:25:21.398Z,3.10
2023-05-23T19:27:48.240Z,3.30
2023-05-23T19:30:15.158Z,3.70
2023-05-23T19:32:41.917Z,3.93
2023-05-23T19:35:08.946Z,3.27
2023-05-23T19:37:35.695Z,3.20
2023-05-23T19:40:02.495Z,3.90
2023-05-23T19:42:29.191Z,3.03
2023-05-23T19:44:56.156Z,3.40
2023-05-23T19:47:23.266Z,3.43
2023-05-23T19:49:50.090Z,3.43
2023-05-23T19:52:16.778Z,3.43
2023-05-23T19:54:43.502Z,3.60
2023-05-23T19:57:10.176Z,4.27
2023-05-23T19:59:36.854Z,4.60
2023-05-23T20:02:03.736Z,3.50
2023-05-23T20:04:30.405Z,2.90
2023-05-23T20:06:57.133Z,3.77
2023-05-23T20:09:23.839Z,3.40
2023-05-23T20:11:50.574Z,3.10
2023-05-23T20:14:17.328Z,3.23
2023-05-23T20:16:44.174Z,3.10
2023-05-23T20:19:11.009Z,3.47
2023-05-23T20:21:37.762Z,3.63
2023-05-23T20:24:04.661Z,3.00
2023-05-23T20:26:31.320Z,3.40
2023-05-23T20:28:58.003Z,2.97
2023-05-23T20:31:24.695Z,3.33
2023-05-23T20:33:52.344Z,3.10
2023-05-23T20:36:20.866Z,2.60
2023-05-23T20:38:47.802Z,2.87
2023-05-23T20:41:14.578Z,3.00
2023-05-23T20:43:41.274Z,3.00
2023-05-23T20:46:09.897Z,3.70
2023-05-23T20:48:36.558Z,3.03
2023-05-23T20:51:05.546Z,4.00
2023-05-23T20:53:32.276Z,3.53
2023-05-23T20:55:59.642Z,3.60
2023-05-23T20:58:26.716Z,3.20
2023-05-23T21:00:53.461Z,3.73
2023-05-23T21:03:20.471Z,3.33
2023-05-23T21:05:47.210Z,3.80
2023-05-23T21:08:13.857Z,4.13
2023-05-23T21:10:40.952Z,4.60
2023-05-23T21:13:08.048Z,2.73
2023-05-23T21:15:34.811Z,3.07
2023-05-23T21:18:01.568Z,3.27
2023-05-23T21:20:29.098Z,2.77
2023-05-23T21:22:55.970Z,2.57
2023-05-23T21:25:22.849Z,3.63
2023-05-23T21:27:49.509Z,4.10
2023-05-23T21:30:16.297Z,3.43
2023-05-23T21:32:43.529Z,4.13
2023-05-23T21:35:10.492Z,2.57
2023-05-23T21:37:37.156Z,3.70
2023-05-23T21:40:04.243Z,2.83
2023-05-23T21:42:30.974Z,3.33
2023-05-23T21:44:57.741Z,3.33
2023-05-23T21:47:25.052Z,3.40
2023-05-23T21:49:51.882Z,2.80
2023-05-23T21:52:18.570Z,3.03
2023-05-23T21:54:46.856Z,2.70
2023-05-23T21:57:13.795Z,2.73
2023-05-23T21:59:41.539Z,3.60
2023-05-23T22:02:08.715Z,2.73
2023-05-23T22:04:35.682Z,2.87
2023-05-23T22:07:02.331Z,2.80
2023-05-23T22:09:29.323Z,3.27
2023-05-23T22:11:56.404Z,2.63
2023-05-23T22:14:23.059Z,2.50
2023-05-23T22:16:50.154Z,3.30
2023-05-23T22:19:19.885Z,3.87
2023-05-23T22:21:47.424Z,3.27
2023-05-23T22:24:14.113Z,2.63
2023-05-23T22:26:41.035Z,2.80
2023-05-23T22:29:08.048Z,2.23
2023-05-23T22:31:35.446Z,2.37
2023-05-23T22:34:02.619Z,2.87
2023-05-23T22:36:29.328Z,3.20
2023-05-23T22:38:56.377Z,3.17
2023-05-23T22:41:23.461Z,3.00
2023-05-23T22:43:50.538Z,3.33
2023-05-23T22:46:17.268Z,3.27
2023-05-23T22:48:44.823Z,2.63
2023-05-23T22:51:13.210Z,2.90
2023-05-23T22:53:41.034Z,2.30
2023-05-23T22:56:07.713Z,2.63
2023-05-23T22:58:34.409Z,2.57
2023-05-23T23:01:01.095Z,2.10
2023-05-23T23:03:27.824Z,2.50
2023-05-23T23:05:54.561Z,3.10
2023-05-23T23:08:21.711Z,3.23
2023-05-23T23:10:48.442Z,3.40
2023-05-23T23:13:15.222Z,2.83
2023-05-23T23:15:42.965Z,2.27
2023-05-23T23:18:10.073Z,2.20
2023-05-23T23:20:37.135Z,3.07
2023-05-23T23:23:03.946Z,2.83
2023-05-23T23:25:30.609Z,3.03
2023-05-23T23:27:57.266Z,2.23
2023-05-23T23:30:23.938Z,2.53
2023-05-23T23:32:50.645Z,2.00
2023-05-23T23:35:17.349Z,2.80
2023-05-23T23:37:44.096Z,1.87
2023-05-23T23:40:11.270Z,2.60
2023-05-23T23:42:37.952Z,3.07
2023-05-23T23:45:05.727Z,3.20
2023-05-23T23:47:32.615Z,2.90
2023-05-23T23:49:59.929Z,2.50
2023-05-23T23:52:27.946Z,2.30
2023-05-23T23:54:54.954Z,2.63
2023-05-23T23:57:21.750Z,2.20
2023-05-23T23:59:48.536Z,2.73
